Batesville, Panola County Airport (KPMU)

NamePanola County Airport
CityBatesville
CountryUnited States
ICAOKPMU
IATA
Altitude67 m
CoordinatesGoogle Map
Live Air TrafficLiveATC.net
METARKPMU 161655Z AUTO 00000KT 10SM CLR 12/08 A3028 RMK AO2
2018-12-16 16:55:00 Wind: North (0°) 0 m/s - Visibility: 16093.4 m - Temperature: 12 °C - Dew point: 8 °C - Humidity: 76.7% - Pressure: 1025.4 hPa
Statistics

The table below shows the detailed information of all flights to/from Batesville, Panola County Airport (KPMU).